createdAt,value
2022-11-05T00:02:22.890Z,99726.50
2022-11-05T00:05:08.248Z,99723.66
2022-11-05T00:07:58.842Z,99721.84
2022-11-05T00:10:28.763Z,99731.16
2022-11-05T00:13:16.270Z,99726.88
2022-11-05T00:16:01.707Z,99726.88
2022-11-05T00:18:29.500Z,99738.88
2022-11-05T00:20:57.054Z,99725.81
2022-11-05T00:23:43.298Z,99725.91
2022-11-05T00:26:12.305Z,99729.28
2022-11-05T00:28:43.769Z,99730.97
2022-11-05T00:31:13.263Z,99736.19
2022-11-05T00:33:42.772Z,99734.41
2022-11-05T00:36:12.063Z,99742.22
2022-11-05T00:38:40.974Z,99746.53
2022-11-05T00:41:08.795Z,99751.56
2022-11-05T00:43:53.932Z,99747.28
2022-11-05T00:46:21.449Z,99755.78
2022-11-05T00:49:06.576Z,99764.38
2022-11-05T00:51:34.068Z,99762.66
2022-11-05T00:54:03.094Z,99765.22
2022-11-05T00:56:30.682Z,99766.94
2022-11-05T00:58:58.358Z,99761.81
2022-11-05T01:01:26.007Z,99765.22
2022-11-05T01:03:53.571Z,99760.97
2022-11-05T01:06:21.099Z,99767.09
2022-11-05T01:08:48.612Z,99777.44
2022-11-05T01:11:33.839Z,99778.31
2022-11-05T01:14:02.372Z,99773.09
2022-11-05T01:16:30.471Z,99777.19
2022-11-05T01:18:57.974Z,99775.47
2022-11-05T01:21:25.481Z,99779.81
2022-11-05T01:23:53.646Z,99780.69
2022-11-05T01:26:22.665Z,99792.69
2022-11-05T01:28:51.883Z,99785.78
2022-11-05T01:31:19.459Z,99792.66
2022-11-05T01:33:47.090Z,99789.25
2022-11-05T01:36:14.832Z,99784.19
2022-11-05T01:38:42.418Z,99797.94
2022-11-05T01:41:10.065Z,99796.13
2022-11-05T01:43:49.358Z,99799.63
2022-11-05T01:46:20.666Z,99800.53
2022-11-05T01:48:50.930Z,99798.88
2022-11-05T01:51:20.976Z,99793.75
2022-11-05T01:53:53.324Z,99802.34
2022-11-05T01:56:25.281Z,99804.16
2022-11-05T01:58:57.398Z,99804.16
2022-11-05T02:01:25.914Z,99804.31
2022-11-05T02:03:56.331Z,99806.72
2022-11-05T02:06:23.890Z,99814.31
2022-11-05T02:08:58.059Z,99815.13
2022-11-05T02:11:25.748Z,99817.69
2022-11-05T02:13:54.637Z,99821.16
2022-11-05T02:16:32.967Z,99826.34
2022-11-05T02:19:12.103Z,99823.00
2022-11-05T02:22:00.616Z,99821.22
2022-11-05T02:25:11.101Z,99823.16
2022-11-05T02:28:06.356Z,99824.78
2022-11-05T02:30:43.334Z,99822.19
2022-11-05T02:33:27.693Z,99826.47
2022-11-05T02:36:06.672Z,99826.44
2022-11-05T02:38:46.970Z,99827.19
2022-11-05T02:41:24.611Z,99827.94
2022-11-05T02:44:06.994Z,99829.75
2022-11-05T02:46:46.534Z,99827.91
2022-11-05T02:49:23.298Z,99833.75
2022-11-05T02:51:57.843Z,99835.50
2022-11-05T02:54:29.558Z,99838.06
2022-11-05T02:57:00.213Z,99832.81
2022-11-05T02:59:27.771Z,99835.28
2022-11-05T03:01:58.199Z,99842.97
2022-11-05T03:04:27.031Z,99838.72
2022-11-05T03:07:08.940Z,99847.41
2022-11-05T03:10:00.493Z,99847.38
2022-11-05T03:12:33.550Z,99845.66
2022-11-05T03:15:13.458Z,99844.78
2022-11-05T03:17:50.282Z,99850.69
2022-11-05T03:20:22.585Z,99849.06
2022-11-05T03:22:54.705Z,99851.50
2022-11-05T03:25:25.564Z,99866.94
2022-11-05T03:27:57.380Z,99870.41
2022-11-05T03:30:26.169Z,99863.44
2022-11-05T03:32:59.911Z,99873.78
2022-11-05T03:35:31.089Z,99870.34
2022-11-05T03:38:03.638Z,99868.66
2022-11-05T03:40:35.869Z,99878.22
2022-11-05T03:43:06.454Z,99877.38
2022-11-05T03:45:37.166Z,99878.28
2022-11-05T03:48:10.313Z,99886.84
2022-11-05T03:50:41.783Z,99882.28
2022-11-05T03:53:16.231Z,99901.97
2022-11-05T03:55:52.464Z,99905.44
2022-11-05T03:58:22.239Z,99902.84
2022-11-05T04:00:51.717Z,99914.09
2022-11-05T04:03:20.638Z,99913.22
2022-11-05T04:06:09.160Z,99919.13
2022-11-05T04:08:54.507Z,99917.28
2022-11-05T04:11:39.810Z,99928.47
2022-11-05T04:14:07.375Z,99923.25
2022-11-05T04:16:52.555Z,99921.50
2022-11-05T04:19:42.381Z,99927.66
2022-11-05T04:22:27.396Z,99929.28
2022-11-05T04:24:54.909Z,99926.91
2022-11-05T04:27:22.676Z,99932.06
2022-11-05T04:30:07.789Z,99930.38
2022-11-05T04:32:35.375Z,99925.22
2022-11-05T04:35:04.407Z,99931.25
2022-11-05T04:37:32.070Z,99928.53
2022-11-05T04:39:59.623Z,99934.63
2022-11-05T04:42:28.479Z,99942.41
2022-11-05T04:44:56.047Z,99942.50
2022-11-05T04:47:23.538Z,99940.97
2022-11-05T04:49:51.043Z,99939.25
2022-11-05T04:52:19.908Z,99947.00
2022-11-05T04:54:47.523Z,99945.28
2022-11-05T04:57:15.073Z,99954.63
2022-11-05T04:59:42.738Z,99949.47
2022-11-05T05:02:10.377Z,99945.84
2022-11-05T05:04:37.963Z,99951.63
2022-11-05T05:07:05.815Z,99949.13
2022-11-05T05:09:34.682Z,99959.56
2022-11-05T05:12:02.498Z,99959.44
2022-11-05T05:14:30.030Z,99966.84
2022-11-05T05:16:57.553Z,99969.25
2022-11-05T05:19:25.645Z,99974.31
2022-11-05T05:21:52.287Z,99976.06
2022-11-05T05:24:21.227Z,99987.91
2022-11-05T05:26:51.714Z,99994.88
2022-11-05T05:29:19.670Z,99992.19
2022-11-05T05:31:47.184Z,99999.81
2022-11-05T05:34:15.677Z,100004.72
2022-11-05T05:36:43.203Z,100009.75
2022-11-05T05:39:11.643Z,100011.41
2022-11-05T05:41:39.193Z,100020.03
2022-11-05T05:44:08.470Z,100019.19
2022-11-05T05:46:36.008Z,100021.00
2022-11-05T05:49:06.691Z,100018.41
2022-11-05T05:51:38.703Z,100026.31
2022-11-05T05:54:06.599Z,100027.16
2022-11-05T05:56:34.132Z,100029.75
2022-11-05T05:59:01.661Z,100039.97
2022-11-05T06:01:30.634Z,100045.91
2022-11-05T06:03:58.203Z,100035.56
2022-11-05T06:06:25.721Z,100047.56
2022-11-05T06:08:53.250Z,100056.00
2022-11-05T06:11:20.800Z,100054.72
2022-11-05T06:13:48.342Z,100057.44
2022-11-05T06:16:16.033Z,100061.50
2022-11-05T06:18:44.912Z,100066.53
2022-11-05T06:21:14.329Z,100056.88
2022-11-05T06:23:44.298Z,100066.28
2022-11-05T06:26:13.642Z,100068.13
2022-11-05T06:28:42.390Z,100073.25
2022-11-05T06:31:10.132Z,100076.84
2022-11-05T06:33:37.882Z,100076.75
2022-11-05T06:36:08.811Z,100087.19
2022-11-05T06:38:37.559Z,100092.56
2022-11-05T06:41:10.005Z,100095.19
2022-11-05T06:43:38.447Z,100102.91
2022-11-05T06:46:06.867Z,100117.28
2022-11-05T06:48:35.129Z,100115.13
2022-11-05T06:51:02.708Z,100122.81
2022-11-05T06:53:31.843Z,100122.81
2022-11-05T06:56:03.102Z,100127.94
2022-11-05T06:58:31.725Z,100140.78
2022-11-05T07:01:02.102Z,100138.41
2022-11-05T07:03:29.830Z,100143.56
2022-11-05T07:05:59.107Z,100146.78
2022-11-05T07:08:26.912Z,100149.97
2022-11-05T07:10:55.805Z,100153.97
2022-11-05T07:13:23.337Z,100158.09
2022-11-05T07:15:50.931Z,100169.28
2022-11-05T07:18:18.815Z,100173.50
2022-11-05T07:20:46.353Z,100171.56
2022-11-05T07:23:15.439Z,100181.56
2022-11-05T07:25:44.016Z,100181.72
2022-11-05T07:28:14.315Z,100186.66
2022-11-05T07:30:41.976Z,100197.81
2022-11-05T07:33:10.348Z,100191.78
2022-11-05T07:35:38.134Z,100197.84
2022-11-05T07:38:05.688Z,100197.91
2022-11-05T07:40:33.209Z,100200.00
2022-11-05T07:43:02.610Z,100202.91
2022-11-05T07:45:32.261Z,100205.03
2022-11-05T07:48:01.631Z,100202.47
2022-11-05T07:50:31.541Z,100204.22
2022-11-05T07:53:03.027Z,100208.75
2022-11-05T07:55:31.267Z,100209.78
2022-11-05T07:57:59.433Z,100214.28
2022-11-05T08:00:28.213Z,100214.56
2022-11-05T08:03:07.330Z,100221.44
2022-11-05T08:05:38.283Z,100215.47
2022-11-05T08:08:07.018Z,100224.66
2022-11-05T08:10:35.444Z,100223.09
2022-11-05T08:13:03.266Z,100224.94
2022-11-05T08:15:30.877Z,100232.41
2022-11-05T08:18:00.627Z,100233.00
2022-11-05T08:20:28.683Z,100239.91
2022-11-05T08:22:56.811Z,100247.56
2022-11-05T08:25:25.016Z,100243.41
2022-11-05T08:27:56.942Z,100251.56
2022-11-05T08:30:24.735Z,100249.41
2022-11-05T08:32:52.420Z,100253.22
2022-11-05T08:35:21.268Z,100253.44
2022-11-05T08:37:48.801Z,100255.22
2022-11-05T08:40:16.592Z,100253.13
2022-11-05T08:42:44.151Z,100264.06
2022-11-05T08:45:11.834Z,100256.38
2022-11-05T08:47:39.388Z,100266.66
2022-11-05T08:50:07.898Z,100265.06
2022-11-05T08:52:36.822Z,100266.72
2022-11-05T08:55:04.493Z,100271.72
2022-11-05T08:57:31.998Z,100277.31
2022-11-05T08:59:59.538Z,100271.06
2022-11-05T09:02:27.154Z,100267.56
2022-11-05T09:04:54.721Z,100262.00
2022-11-05T09:07:22.861Z,100262.59
2022-11-05T09:09:51.752Z,100265.31
2022-11-05T09:12:19.379Z,100266.97
2022-11-05T09:14:46.912Z,100265.13
2022-11-05T09:17:18.138Z,100268.22
2022-11-05T09:19:46.074Z,100269.59
2022-11-05T09:22:13.682Z,100284.94
2022-11-05T09:24:41.264Z,100286.97
2022-11-05T09:27:11.838Z,100286.88
2022-11-05T09:29:39.469Z,100293.69
2022-11-05T09:32:07.058Z,100297.00
2022-11-05T09:34:35.390Z,100289.81
2022-11-05T09:37:03.316Z,100296.16
2022-11-05T09:39:30.903Z,100301.34
2022-11-05T09:42:03.098Z,100299.22
2022-11-05T09:44:38.695Z,100302.59
2022-11-05T09:47:09.437Z,100306.78
2022-11-05T09:49:40.688Z,100305.91
2022-11-05T09:52:14.355Z,100312.72
2022-11-05T09:54:42.182Z,100317.66
2022-11-05T09:57:16.797Z,100321.34
2022-11-05T09:59:49.914Z,100317.09
2022-11-05T10:02:20.558Z,100319.06
2022-11-05T10:04:51.945Z,100320.50
2022-11-05T10:07:23.998Z,100312.97
2022-11-05T10:09:57.026Z,100318.41
2022-11-05T10:12:29.502Z,100320.84
2022-11-05T10:15:08.021Z,100325.38
2022-11-05T10:17:39.359Z,100320.28
2022-11-05T10:20:15.242Z,100319.13
2022-11-05T10:22:48.180Z,100319.91
2022-11-05T10:25:19.682Z,100324.66
2022-11-05T10:27:52.011Z,100326.31
2022-11-05T10:30:21.917Z,100331.88
2022-11-05T10:32:53.051Z,100335.13
2022-11-05T10:35:23.000Z,100330.16
2022-11-05T10:37:51.310Z,100341.84
2022-11-05T10:40:30.762Z,100342.03
2022-11-05T10:43:05.900Z,100339.81
2022-11-05T10:45:46.812Z,100354.72
2022-11-05T10:48:33.556Z,100349.94
2022-11-05T10:51:02.047Z,100360.50
2022-11-05T10:53:33.505Z,100353.53
2022-11-05T10:56:01.283Z,100350.19
2022-11-05T10:58:31.065Z,100353.59
2022-11-05T11:01:13.277Z,100350.53
2022-11-05T11:03:44.723Z,100350.28
2022-11-05T11:06:24.210Z,100340.06
2022-11-05T11:08:53.676Z,100342.19
2022-11-05T11:11:31.026Z,100341.78
2022-11-05T11:14:07.615Z,100342.09
2022-11-05T11:16:39.673Z,100341.06
2022-11-05T11:19:25.744Z,100342.78
2022-11-05T11:22:20.740Z,100344.31
2022-11-05T11:24:50.922Z,100342.22
2022-11-05T11:27:23.270Z,100342.44
2022-11-05T11:29:57.284Z,100345.34
2022-11-05T11:32:32.787Z,100341.50
2022-11-05T11:35:01.100Z,100347.09
2022-11-05T11:37:31.499Z,100336.88
2022-11-05T11:40:04.320Z,100338.31
2022-11-05T11:42:34.490Z,100343.16
2022-11-05T11:45:07.926Z,100338.72
2022-11-05T11:47:36.749Z,100344.97
2022-11-05T11:50:04.528Z,100332.63
2022-11-05T11:52:34.537Z,100330.09
2022-11-05T11:55:19.309Z,100339.59
2022-11-05T11:57:49.078Z,100343.69
2022-11-05T12:00:17.734Z,100335.84
2022-11-05T12:03:02.264Z,100342.91
2022-11-05T12:05:37.251Z,100338.41
2022-11-05T12:08:17.154Z,100340.88
2022-11-05T12:10:55.735Z,100342.44
2022-11-05T12:13:41.736Z,100342.44
2022-11-05T12:16:20.976Z,100337.81
2022-11-05T12:19:00.430Z,100336.69
2022-11-05T12:21:51.954Z,100340.25
2022-11-05T12:24:37.674Z,100334.44
2022-11-05T12:27:18.937Z,100333.34
2022-11-05T12:29:56.445Z,100332.53
2022-11-05T12:32:56.015Z,100333.47
2022-11-05T12:35:44.202Z,100332.53
2022-11-05T12:38:27.183Z,100335.31
2022-11-05T12:41:07.905Z,100336.69
2022-11-05T12:43:47.403Z,100333.00
2022-11-05T12:46:26.713Z,100332.91
2022-11-05T12:49:19.675Z,100330.72
2022-11-05T12:52:04.911Z,100326.34
2022-11-05T12:54:48.855Z,100326.34
2022-11-05T12:57:17.628Z,100331.66
2022-11-05T12:59:52.842Z,100327.06
2022-11-05T13:02:27.769Z,100334.41
2022-11-05T13:04:59.580Z,100328.44
2022-11-05T13:07:34.378Z,100328.06
2022-11-05T13:10:06.323Z,100331.59
2022-11-05T13:12:39.906Z,100334.66
2022-11-05T13:15:11.550Z,100342.50
2022-11-05T13:17:50.080Z,100329.84
2022-11-05T13:20:22.192Z,100337.53
2022-11-05T13:22:56.283Z,100346.00
2022-11-05T13:25:26.135Z,100346.63
2022-11-05T13:28:00.439Z,100349.09
2022-11-05T13:30:32.483Z,100344.91
2022-11-05T13:33:06.301Z,100336.41
2022-11-05T13:35:45.190Z,100344.03
2022-11-05T13:38:39.534Z,100353.41
2022-11-05T13:41:22.349Z,100352.16
2022-11-05T13:44:06.216Z,100356.00
2022-11-05T13:46:40.224Z,100351.75
2022-11-05T13:49:16.411Z,100361.91
2022-11-05T13:51:50.933Z,100346.69
2022-11-05T13:54:51.594Z,100354.28
2022-11-05T13:57:34.541Z,100350.28
2022-11-05T14:00:12.319Z,100351.44
2022-11-05T14:02:44.370Z,100358.88
2022-11-05T14:05:24.817Z,100362.06
2022-11-05T14:07:54.154Z,100359.63
2022-11-05T14:10:36.413Z,100357.81
2022-11-05T14:13:17.161Z,100362.69
2022-11-05T14:15:57.564Z,100353.63
2022-11-05T14:18:40.948Z,100362.88
2022-11-05T14:21:31.381Z,100354.16
2022-11-05T14:24:00.700Z,100352.47
2022-11-05T14:26:36.899Z,100357.34
2022-11-05T14:29:26.284Z,100358.09
2022-11-05T14:32:08.748Z,100363.03
2022-11-05T14:34:49.341Z,100356.38
2022-11-05T14:37:31.915Z,100361.28
2022-11-05T14:40:18.887Z,100364.47
2022-11-05T14:42:53.858Z,100358.59
2022-11-05T14:45:28.024Z,100363.63
2022-11-05T14:47:58.099Z,100359.38
2022-11-05T14:50:36.032Z,100362.63
2022-11-05T14:53:23.843Z,100365.91
2022-11-05T14:56:00.769Z,100356.44
2022-11-05T14:58:32.964Z,100364.22
2022-11-05T15:01:02.189Z,100365.84
2022-11-05T15:04:01.740Z,100365.78
2022-11-05T15:06:32.459Z,100381.56
2022-11-05T15:09:23.868Z,100376.66
2022-11-05T15:12:15.814Z,100378.69
2022-11-05T15:14:55.589Z,100383.00
2022-11-05T15:17:29.776Z,100386.25
2022-11-05T15:20:02.422Z,100379.22
2022-11-05T15:22:37.336Z,100378.22
2022-11-05T15:25:06.467Z,100376.31
2022-11-05T15:27:49.932Z,100370.06
2022-11-05T15:30:21.043Z,100370.56
2022-11-05T15:32:48.669Z,100371.03
2022-11-05T15:35:26.736Z,100369.00
2022-11-05T15:38:01.688Z,100370.28
2022-11-05T15:40:31.790Z,100371.00
2022-11-05T15:43:09.950Z,100375.94
2022-11-05T15:45:39.973Z,100382.47
2022-11-05T15:48:14.976Z,100392.34
2022-11-05T15:50:42.928Z,100390.25
2022-11-05T15:53:44.132Z,100389.16
2022-11-05T15:56:11.751Z,100376.81
2022-11-05T15:58:41.743Z,100373.78
2022-11-05T16:01:21.226Z,100375.91
2022-11-05T16:03:49.127Z,100379.81
2022-11-05T16:06:16.842Z,100375.13
2022-11-05T16:08:49.080Z,100384.16
2022-11-05T16:11:24.742Z,100382.09
2022-11-05T16:13:53.303Z,100383.38
2022-11-05T16:16:33.602Z,100386.50
2022-11-05T16:19:01.597Z,100384.44
2022-11-05T16:21:29.419Z,100385.78
2022-11-05T16:23:58.925Z,100387.97
2022-11-05T16:27:00.688Z,100386.91
2022-11-05T16:29:23.407Z,100397.72
2022-11-05T16:31:55.086Z,100396.38
2022-11-05T16:34:27.872Z,100406.44
2022-11-05T16:36:57.133Z,100403.59
2022-11-05T16:39:25.158Z,100403.03
2022-11-05T16:41:52.971Z,100407.06
2022-11-05T16:44:21.133Z,100398.19
2022-11-05T16:46:50.255Z,100398.69
2022-11-05T16:49:19.206Z,100401.84
2022-11-05T16:51:46.884Z,100405.88
2022-11-05T16:54:14.393Z,100414.13
2022-11-05T16:56:42.743Z,100415.63
2022-11-05T16:59:13.353Z,100416.34
2022-11-05T17:01:43.023Z,100417.75
2022-11-05T17:04:13.570Z,100418.53
2022-11-05T17:06:43.654Z,100422.66
2022-11-05T17:09:11.220Z,100410.22
2022-11-05T17:11:38.785Z,100418.56
2022-11-05T17:14:06.558Z,100409.13
2022-11-05T17:16:34.116Z,100410.63
2022-11-05T17:19:01.721Z,100424.00
2022-11-05T17:21:29.304Z,100415.97
2022-11-05T17:23:58.329Z,100425.22
2022-11-05T17:26:25.874Z,100427.59
2022-11-05T17:28:53.402Z,100429.00
2022-11-05T17:31:21.032Z,100427.81
2022-11-05T17:33:48.575Z,100430.13
2022-11-05T17:36:16.789Z,100436.78
2022-11-05T17:38:44.339Z,100440.78
2022-11-05T17:41:14.726Z,100449.25
2022-11-05T17:43:42.693Z,100451.22
2022-11-05T17:46:12.799Z,100454.38
2022-11-05T17:48:40.771Z,100462.88
2022-11-05T17:51:10.684Z,100463.84
2022-11-05T17:53:38.679Z,100461.13
2022-11-05T17:56:09.224Z,100465.84
2022-11-05T17:58:38.454Z,100475.53
2022-11-05T18:01:06.482Z,100472.59
2022-11-05T18:03:34.422Z,100473.09
2022-11-05T18:06:02.768Z,100472.66
2022-11-05T18:08:30.451Z,100481.66
2022-11-05T18:10:58.290Z,100469.59
2022-11-05T18:13:26.042Z,100478.69
2022-11-05T18:15:55.438Z,100481.00
2022-11-05T18:18:23.081Z,100483.63
2022-11-05T18:20:50.688Z,100494.47
2022-11-05T18:23:18.346Z,100498.72
2022-11-05T18:25:45.927Z,100493.59
2022-11-05T18:28:13.750Z,100479.53
2022-11-05T18:30:41.625Z,100477.78
2022-11-05T18:33:10.889Z,100484.22
2022-11-05T18:35:42.080Z,100495.59
2022-11-05T18:38:09.710Z,100485.75
2022-11-05T18:40:37.261Z,100471.97
2022-11-05T18:43:04.879Z,100476.16
2022-11-05T18:45:33.355Z,100487.09
2022-11-05T18:48:01.628Z,100479.19
2022-11-05T18:50:31.011Z,100478.56
2022-11-05T18:52:58.607Z,100480.31
2022-11-05T18:55:26.156Z,100477.91
2022-11-05T18:57:53.882Z,100471.97
2022-11-05T19:00:21.733Z,100468.72
2022-11-05T19:02:49.441Z,100471.19
2022-11-05T19:05:32.439Z,100471.09
2022-11-05T19:08:01.782Z,100474.53
2022-11-05T19:10:29.585Z,100472.97
2022-11-05T19:12:57.732Z,100471.34
2022-11-05T19:15:25.352Z,100468.72
2022-11-05T19:17:52.959Z,100462.72
2022-11-05T19:20:20.643Z,100464.47
2022-11-05T19:22:48.275Z,100473.91
2022-11-05T19:25:17.261Z,100474.84
2022-11-05T19:27:44.917Z,100473.03
2022-11-05T19:30:12.867Z,100468.72
2022-11-05T19:32:40.403Z,100479.66
2022-11-05T19:35:08.642Z,100477.75
2022-11-05T19:37:36.212Z,100479.53
2022-11-05T19:40:03.733Z,100480.16
2022-11-05T19:42:32.605Z,100475.69
2022-11-05T19:45:16.745Z,100483.13
2022-11-05T19:47:47.656Z,100488.25
2022-11-05T19:50:15.206Z,100482.19
2022-11-05T19:52:42.740Z,100478.59
2022-11-05T19:55:12.335Z,100487.22
2022-11-05T19:57:41.548Z,100494.69
2022-11-05T20:00:10.441Z,100492.19
2022-11-05T20:02:38.351Z,100496.31
2022-11-05T20:05:06.555Z,100494.44
2022-11-05T20:07:34.115Z,100493.31
2022-11-05T20:10:01.644Z,100495.56
2022-11-05T20:12:29.222Z,100495.34
2022-11-05T20:14:58.127Z,100501.16
2022-11-05T20:17:25.692Z,100487.25
2022-11-05T20:19:53.310Z,100495.72
2022-11-05T20:22:20.847Z,100488.66
2022-11-05T20:24:48.382Z,100492.03
2022-11-05T20:27:15.991Z,100496.97
2022-11-05T20:29:43.585Z,100496.66
2022-11-05T20:32:12.948Z,100492.97
2022-11-05T20:34:40.713Z,100496.34
2022-11-05T20:37:08.261Z,100486.75
2022-11-05T20:39:35.811Z,100484.19
2022-11-05T20:42:03.422Z,100489.84
2022-11-05T20:44:30.947Z,100491.41
2022-11-05T20:46:58.485Z,100490.34
2022-11-05T20:49:27.411Z,100493.78
2022-11-05T20:51:54.986Z,100495.19
2022-11-05T20:54:22.750Z,100500.13
2022-11-05T20:56:50.355Z,100492.31
2022-11-05T20:59:17.966Z,100495.69
2022-11-05T21:01:45.573Z,100484.50
2022-11-05T21:04:13.208Z,100492.78
2022-11-05T21:06:42.222Z,100487.53
2022-11-05T21:09:09.865Z,100491.44
2022-11-05T21:11:51.329Z,100494.75
2022-11-05T21:14:18.927Z,100486.88
2022-11-05T21:16:46.454Z,100499.53
2022-11-05T21:19:15.038Z,100493.41
2022-11-05T21:21:43.995Z,100500.94
2022-11-05T21:24:11.493Z,100494.97
2022-11-05T21:26:39.518Z,100502.56
2022-11-05T21:29:07.610Z,100497.44
2022-11-05T21:31:36.925Z,100495.59
2022-11-05T21:34:05.043Z,100494.63
2022-11-05T21:36:32.699Z,100496.31
2022-11-05T21:39:01.536Z,100492.00
2022-11-05T21:41:29.196Z,100490.00
2022-11-05T21:43:57.525Z,100491.56
2022-11-05T21:46:25.398Z,100490.63
2022-11-05T21:48:53.073Z,100490.44
2022-11-05T21:51:38.279Z,100493.78
2022-11-05T21:54:24.926Z,100490.44
2022-11-05T21:57:11.065Z,100482.00
2022-11-05T21:59:51.921Z,100490.63
2022-11-05T22:02:22.117Z,100478.81
2022-11-05T22:04:51.962Z,100481.56
2022-11-05T22:07:21.507Z,100472.28
2022-11-05T22:09:50.775Z,100476.22
2022-11-05T22:12:18.570Z,100479.69
2022-11-05T22:14:46.111Z,100476.69
2022-11-05T22:17:14.834Z,100473.16
2022-11-05T22:19:42.940Z,100481.00
2022-11-05T22:22:10.951Z,100478.84
2022-11-05T22:24:39.526Z,100474.78
2022-11-05T22:27:13.558Z,100475.47
2022-11-05T22:29:41.249Z,100476.22
2022-11-05T22:32:08.888Z,100475.88
2022-11-05T22:34:36.438Z,100490.22
2022-11-05T22:37:04.019Z,100481.44
2022-11-05T22:39:31.572Z,100478.75
2022-11-05T22:42:04.225Z,100478.50
2022-11-05T22:44:36.207Z,100472.44
2022-11-05T22:47:03.863Z,100473.94
2022-11-05T22:49:31.382Z,100465.22
2022-11-05T22:52:01.060Z,100464.19
2022-11-05T22:54:28.862Z,100464.03
2022-11-05T22:56:56.385Z,100457.00
2022-11-05T22:59:24.186Z,100453.31
2022-11-05T23:01:53.402Z,100464.78
2022-11-05T23:04:21.036Z,100460.38
2022-11-05T23:07:06.000Z,100457.56
2022-11-05T23:09:52.960Z,100462.59
2022-11-05T23:12:23.926Z,100460.91
2022-11-05T23:14:52.322Z,100453.09
2022-11-05T23:17:39.209Z,100449.56
2022-11-05T23:20:26.401Z,100458.03
2022-11-05T23:23:11.680Z,100451.00
2022-11-05T23:25:39.242Z,100450.19
2022-11-05T23:28:09.722Z,100446.69
2022-11-05T23:30:58.988Z,100443.28
2022-11-05T23:33:27.486Z,100431.41
2022-11-05T23:36:12.646Z,100428.75
2022-11-05T23:38:40.722Z,100426.09
2022-11-05T23:41:26.668Z,100414.16
2022-11-05T23:44:11.980Z,100413.28
2022-11-05T23:46:57.190Z,100420.13
2022-11-05T23:49:26.361Z,100418.66
2022-11-05T23:51:53.880Z,100419.44
2022-11-05T23:54:21.848Z,100417.84
2022-11-05T23:56:49.407Z,100417.84
2022-11-05T23:59:16.958Z,100422.94
